sensor_id;sensor_type;location;lat;lon;timestamp;pressure;altitude;pressure_sealevel;temperature;humidity
61136;BME280;47021;51.340;12.432;2023-02-17T00:01:33;100625.41;;;12.31;59.24
61136;BME280;47021;51.340;12.432;2023-02-17T00:03:58;100635.03;;;12.31;59.19
61136;BME280;47021;51.340;12.432;2023-02-17T00:06:28;100628.22;;;12.39;59.12
61136;BME280;47021;51.340;12.432;2023-02-17T00:08:55;100628.56;;;12.46;59.07
61136;BME280;47021;51.340;12.432;2023-02-17T00:11:28;100625.22;;;12.44;59.11
61136;BME280;47021;51.340;12.432;2023-02-17T00:13:54;100624.53;;;12.42;58.93
61136;BME280;47021;51.340;12.432;2023-02-17T00:16:32;100617.63;;;12.41;58.95
61136;BME280;47021;51.340;12.432;2023-02-17T00:19:03;100614.38;;;12.48;58.64
61136;BME280;47021;51.340;12.432;2023-02-17T00:21:37;100616.78;;;12.40;59.44
61136;BME280;47021;51.340;12.432;2023-02-17T00:24:02;100614.34;;;12.28;59.49
61136;BME280;47021;51.340;12.432;2023-02-17T00:26:40;100607.34;;;12.28;60.28
61136;BME280;47021;51.340;12.432;2023-02-17T00:29:11;100594.28;;;12.38;59.95
61136;BME280;47021;51.340;12.432;2023-02-17T00:31:43;100593.53;;;12.47;60.13
61136;BME280;47021;51.340;12.432;2023-02-17T00:34:11;100587.34;;;12.48;59.62
61136;BME280;47021;51.340;12.432;2023-02-17T00:36:38;100596.59;;;12.52;60.17
61136;BME280;47021;51.340;12.432;2023-02-17T00:39:11;100576.72;;;12.49;60.02
61136;BME280;47021;51.340;12.432;2023-02-17T00:41:52;100573.78;;;12.43;60.60
61136;BME280;47021;51.340;12.432;2023-02-17T00:44:19;100579.09;;;12.32;60.44
61136;BME280;47021;51.340;12.432;2023-02-17T00:46:57;100578.25;;;12.31;60.82
61136;BME280;47021;51.340;12.432;2023-02-17T00:49:25;100577.09;;;12.24;60.89
61136;BME280;47021;51.340;12.432;2023-02-17T00:52:10;100577.63;;;12.18;60.57
61136;BME280;47021;51.340;12.432;2023-02-17T00:54:41;100570.69;;;12.28;60.19
61136;BME280;47021;51.340;12.432;2023-02-17T00:57:15;100568.63;;;12.32;60.13
61136;BME280;47021;51.340;12.432;2023-02-17T01:03:32;100580.41;;;11.74;61.95
61136;BME280;47021;51.340;12.432;2023-02-17T01:06:20;100569.78;;;11.86;61.27
61136;BME280;47021;51.340;12.432;2023-02-17T01:08:46;100568.16;;;12.27;60.22
61136;BME280;47021;51.340;12.432;2023-02-17T01:11:28;100561.34;;;12.15;60.10
61136;BME280;47021;51.340;12.432;2023-02-17T01:14:17;100551.88;;;12.02;60.62
61136;BME280;47021;51.340;12.432;2023-02-17T01:16:49;100544.28;;;11.99;61.03
61136;BME280;47021;51.340;12.432;2023-02-17T01:19:21;100548.38;;;12.13;60.76
61136;BME280;47021;51.340;12.432;2023-02-17T01:22:14;100542.59;;;12.30;61.10
61136;BME280;47021;51.340;12.432;2023-02-17T01:24:39;100538.28;;;12.09;61.53
61136;BME280;47021;51.340;12.432;2023-02-17T01:27:12;100539.66;;;12.24;60.63
61136;BME280;47021;51.340;12.432;2023-02-17T01:29:38;100535.88;;;12.37;60.72
61136;BME280;47021;51.340;12.432;2023-02-17T01:32:10;100526.88;;;12.30;60.43
61136;BME280;47021;51.340;12.432;2023-02-17T01:34:36;100533.13;;;12.18;61.08
61136;BME280;47021;51.340;12.432;2023-02-17T01:37:02;100530.94;;;12.02;61.71
61136;BME280;47021;51.340;12.432;2023-02-17T01:39:31;100526.09;;;12.19;60.79
61136;BME280;47021;51.340;12.432;2023-02-17T01:41:58;100525.94;;;11.79;61.39
61136;BME280;47021;51.340;12.432;2023-02-17T01:44:25;100526.59;;;12.13;60.51
61136;BME280;47021;51.340;12.432;2023-02-17T01:46:52;100516.84;;;12.15;59.65
61136;BME280;47021;51.340;12.432;2023-02-17T01:49:37;100521.63;;;12.51;59.13
61136;BME280;47021;51.340;12.432;2023-02-17T01:52:14;100519.00;;;12.30;59.70
61136;BME280;47021;51.340;12.432;2023-02-17T01:57:12;100518.91;;;12.62;58.45
61136;BME280;47021;51.340;12.432;2023-02-17T01:59:41;100514.50;;;12.62;58.54
61136;BME280;47021;51.340;12.432;2023-02-17T02:02:07;100515.81;;;12.77;58.35
61136;BME280;47021;51.340;12.432;2023-02-17T02:04:50;100515.56;;;12.81;57.60
61136;BME280;47021;51.340;12.432;2023-02-17T02:07:34;100502.69;;;12.77;57.72
61136;BME280;47021;51.340;12.432;2023-02-17T02:10:11;100498.84;;;12.82;57.47
61136;BME280;47021;51.340;12.432;2023-02-17T02:12:39;100496.22;;;12.82;57.73
61136;BME280;47021;51.340;12.432;2023-02-17T02:15:12;100483.00;;;12.83;57.29
61136;BME280;47021;51.340;12.432;2023-02-17T02:35:06;100457.72;;;12.42;59.58
61136;BME280;47021;51.340;12.432;2023-02-17T02:37:52;100451.38;;;12.75;58.72
61136;BME280;47021;51.340;12.432;2023-02-17T02:40:23;100452.44;;;12.63;59.10
61136;BME280;47021;51.340;12.432;2023-02-17T02:43:00;100465.13;;;12.58;59.03
61136;BME280;47021;51.340;12.432;2023-02-17T02:45:42;100453.28;;;12.63;58.73
61136;BME280;47021;51.340;12.432;2023-02-17T02:48:09;100449.75;;;12.44;59.30
61136;BME280;47021;51.340;12.432;2023-02-17T02:51:26;100441.81;;;12.55;59.37
61136;BME280;47021;51.340;12.432;2023-02-17T02:54:14;100445.50;;;12.22;60.47
61136;BME280;47021;51.340;12.432;2023-02-17T02:59:40;100434.38;;;12.30;61.97
61136;BME280;47021;51.340;12.432;2023-02-17T03:02:20;100429.91;;;12.41;61.21
61136;BME280;47021;51.340;12.432;2023-02-17T03:08:08;100429.97;;;12.60;60.70
61136;BME280;47021;51.340;12.432;2023-02-17T03:10:48;100433.38;;;12.51;61.23
61136;BME280;47021;51.340;12.432;2023-02-17T03:13:17;100433.03;;;12.75;59.91
61136;BME280;47021;51.340;12.432;2023-02-17T03:15:45;100429.19;;;12.79;59.82
61136;BME280;47021;51.340;12.432;2023-02-17T03:18:13;100426.75;;;12.47;60.52
61136;BME280;47021;51.340;12.432;2023-02-17T03:21:02;100424.31;;;12.55;59.94
61136;BME280;47021;51.340;12.432;2023-02-17T03:23:28;100424.56;;;12.92;59.17
61136;BME280;47021;51.340;12.432;2023-02-17T03:25:53;100416.22;;;12.77;59.42
61136;BME280;47021;51.340;12.432;2023-02-17T03:28:20;100423.13;;;12.79;59.46
61136;BME280;47021;51.340;12.432;2023-02-17T03:30:45;100421.94;;;13.02;59.19
61136;BME280;47021;51.340;12.432;2023-02-17T03:33:32;100420.59;;;12.58;59.77
61136;BME280;47021;51.340;12.432;2023-02-17T03:35:58;100417.69;;;12.61;59.84
61136;BME280;47021;51.340;12.432;2023-02-17T03:38:33;100409.09;;;12.49;60.62
61136;BME280;47021;51.340;12.432;2023-02-17T03:41:26;100410.31;;;12.85;59.50
61136;BME280;47021;51.340;12.432;2023-02-17T03:43:59;100411.09;;;13.06;58.87
61136;BME280;47021;51.340;12.432;2023-02-17T03:46:24;100410.75;;;12.90;59.07
61136;BME280;47021;51.340;12.432;2023-02-17T03:51:58;100405.31;;;13.22;58.38
61136;BME280;47021;51.340;12.432;2023-02-17T03:54:47;100408.47;;;13.25;58.29
61136;BME280;47021;51.340;12.432;2023-02-17T03:57:12;100399.66;;;13.26;58.76
61136;BME280;47021;51.340;12.432;2023-02-17T03:59:44;100392.03;;;13.23;58.16
61136;BME280;47021;51.340;12.432;2023-02-17T04:02:09;100386.66;;;13.34;58.46
61136;BME280;47021;51.340;12.432;2023-02-17T04:04:35;100395.50;;;13.33;58.34
61136;BME280;47021;51.340;12.432;2023-02-17T04:07:02;100388.31;;;13.26;58.83
61136;BME280;47021;51.340;12.432;2023-02-17T04:09:33;100399.34;;;13.10;58.91
61136;BME280;47021;51.340;12.432;2023-02-17T04:12:01;100395.44;;;12.86;59.76
61136;BME280;47021;51.340;12.432;2023-02-17T04:14:41;100388.53;;;12.85;60.52
61136;BME280;47021;51.340;12.432;2023-02-17T04:17:26;100389.91;;;12.89;60.27
61136;BME280;47021;51.340;12.432;2023-02-17T04:20:05;100396.81;;;12.90;60.85
61136;BME280;47021;51.340;12.432;2023-02-17T04:25:45;100391.44;;;12.91;61.54
61136;BME280;47021;51.340;12.432;2023-02-17T04:28:17;100379.50;;;13.17;60.87
61136;BME280;47021;51.340;12.432;2023-02-17T04:30:46;100379.94;;;12.73;62.32
61136;BME280;47021;51.340;12.432;2023-02-17T04:33:23;100373.50;;;12.87;61.73
61136;BME280;47021;51.340;12.432;2023-02-17T04:35:55;100373.09;;;12.91;62.45
61136;BME280;47021;51.340;12.432;2023-02-17T04:38:33;100382.91;;;12.99;62.12
61136;BME280;47021;51.340;12.432;2023-02-17T04:41:06;100381.03;;;12.70;62.54
61136;BME280;47021;51.340;12.432;2023-02-17T04:43:33;100372.84;;;13.04;61.90
61136;BME280;47021;51.340;12.432;2023-02-17T04:46:15;100374.72;;;12.83;62.23
61136;BME280;47021;51.340;12.432;2023-02-17T04:48:40;100377.25;;;13.03;61.86
61136;BME280;47021;51.340;12.432;2023-02-17T04:51:18;100380.94;;;12.91;62.36
61136;BME280;47021;51.340;12.432;2023-02-17T04:53:43;100364.97;;;12.94;62.22
61136;BME280;47021;51.340;12.432;2023-02-17T04:56:09;100363.25;;;12.64;62.95
61136;BME280;47021;51.340;12.432;2023-02-17T04:58:43;100361.06;;;12.79;62.63
61136;BME280;47021;51.340;12.432;2023-02-17T05:01:16;100359.91;;;13.31;60.92
61136;BME280;47021;51.340;12.432;2023-02-17T05:03:49;100360.59;;;13.42;60.04
61136;BME280;47021;51.340;12.432;2023-02-17T05:06:21;100354.91;;;13.57;59.93
61136;BME280;47021;51.340;12.432;2023-02-17T05:08:47;100349.94;;;13.54;59.41
61136;BME280;47021;51.340;12.432;2023-02-17T05:11:13;100351.88;;;13.42;59.83
61136;BME280;47021;51.340;12.432;2023-02-17T05:13:40;100356.97;;;13.43;60.44
61136;BME280;47021;51.340;12.432;2023-02-17T05:16:06;100356.81;;;13.64;59.53
61136;BME280;47021;51.340;12.432;2023-02-17T05:18:31;100351.88;;;13.23;59.94
61136;BME280;47021;51.340;12.432;2023-02-17T05:20:58;100346.22;;;13.27;59.99
61136;BME280;47021;51.340;12.432;2023-02-17T05:23:23;100347.47;;;13.52;59.56
61136;BME280;47021;51.340;12.432;2023-02-17T05:25:49;100343.00;;;13.62;59.21
61136;BME280;47021;51.340;12.432;2023-02-17T05:28:15;100338.66;;;13.80;58.82
61136;BME280;47021;51.340;12.432;2023-02-17T05:30:42;100328.53;;;13.58;59.33
61136;BME280;47021;51.340;12.432;2023-02-17T05:33:23;100321.22;;;13.52;58.85
61136;BME280;47021;51.340;12.432;2023-02-17T05:36:01;100322.28;;;13.59;58.93
61136;BME280;47021;51.340;12.432;2023-02-17T05:38:29;100323.00;;;13.52;59.04
61136;BME280;47021;51.340;12.432;2023-02-17T05:40:55;100323.72;;;13.34;59.66
61136;BME280;47021;51.340;12.432;2023-02-17T05:43:31;100325.34;;;13.55;58.91
61136;BME280;47021;51.340;12.432;2023-02-17T05:46:05;100323.69;;;13.63;58.96
61136;BME280;47021;51.340;12.432;2023-02-17T05:48:32;100329.19;;;13.70;59.17
61136;BME280;47021;51.340;12.432;2023-02-17T05:50:58;100332.06;;;13.76;58.66
61136;BME280;47021;51.340;12.432;2023-02-17T05:53:31;100333.91;;;13.57;59.52
61136;BME280;47021;51.340;12.432;2023-02-17T05:56:02;100340.84;;;13.29;59.89
61136;BME280;47021;51.340;12.432;2023-02-17T05:58:31;100344.00;;;13.04;60.88
61136;BME280;47021;51.340;12.432;2023-02-17T06:01:10;100341.75;;;12.80;61.97
61136;BME280;47021;51.340;12.432;2023-02-17T06:03:42;100350.50;;;13.09;61.86
61136;BME280;47021;51.340;12.432;2023-02-17T06:06:07;100348.00;;;13.36;60.62
61136;BME280;47021;51.340;12.432;2023-02-17T06:08:33;100344.84;;;13.52;60.13
61136;BME280;47021;51.340;12.432;2023-02-17T06:11:12;100330.22;;;13.21;61.36
61136;BME280;47021;51.340;12.432;2023-02-17T06:13:39;100332.66;;;12.94;62.63
61136;BME280;47021;51.340;12.432;2023-02-17T06:16:04;100343.28;;;12.83;63.20
61136;BME280;47021;51.340;12.432;2023-02-17T06:18:36;100331.28;;;12.90;63.02
61136;BME280;47021;51.340;12.432;2023-02-17T06:21:01;100330.78;;;13.05;62.44
61136;BME280;47021;51.340;12.432;2023-02-17T06:23:27;100324.69;;;13.24;61.84
61136;BME280;47021;51.340;12.432;2023-02-17T06:25:53;100326.75;;;12.92;63.34
61136;BME280;47021;51.340;12.432;2023-02-17T06:28:27;100320.00;;;12.99;63.23
61136;BME280;47021;51.340;12.432;2023-02-17T06:31:24;100311.00;;;12.92;62.92
61136;BME280;47021;51.340;12.432;2023-02-17T06:33:51;100323.59;;;13.36;62.03
61136;BME280;47021;51.340;12.432;2023-02-17T06:36:18;100313.78;;;13.48;61.36
61136;BME280;47021;51.340;12.432;2023-02-17T06:38:49;100319.56;;;13.32;61.55
61136;BME280;47021;51.340;12.432;2023-02-17T06:41:28;100307.84;;;13.36;61.82
61136;BME280;47021;51.340;12.432;2023-02-17T06:43:53;100311.66;;;13.70;60.78
61136;BME280;47021;51.340;12.432;2023-02-17T06:46:25;100313.38;;;13.42;61.74
61136;BME280;47021;51.340;12.432;2023-02-17T06:48:52;100306.63;;;13.21;62.56
61136;BME280;47021;51.340;12.432;2023-02-17T06:51:27;100293.09;;;13.81;60.77
61136;BME280;47021;51.340;12.432;2023-02-17T06:53:54;100287.44;;;13.20;62.26
61136;BME280;47021;51.340;12.432;2023-02-17T06:56:27;100293.56;;;13.58;61.51
61136;BME280;47021;51.340;12.432;2023-02-17T06:58:53;100290.31;;;13.36;61.95
61136;BME280;47021;51.340;12.432;2023-02-17T07:01:22;100294.06;;;13.05;63.50
61136;BME280;47021;51.340;12.432;2023-02-17T07:03:48;100297.34;;;12.98;63.44
61136;BME280;47021;51.340;12.432;2023-02-17T07:06:27;100294.25;;;13.60;62.35
61136;BME280;47021;51.340;12.432;2023-02-17T07:08:53;100298.84;;;13.48;62.14
61136;BME280;47021;51.340;12.432;2023-02-17T07:11:27;100300.56;;;13.76;61.28
61136;BME280;47021;51.340;12.432;2023-02-17T07:13:54;100290.56;;;13.89;61.34
61136;BME280;47021;51.340;12.432;2023-02-17T07:16:28;100289.00;;;13.60;61.56
61136;BME280;47021;51.340;12.432;2023-02-17T07:18:55;100285.91;;;13.83;61.02
61136;BME280;47021;51.340;12.432;2023-02-17T07:21:23;100285.09;;;13.73;61.84
61136;BME280;47021;51.340;12.432;2023-02-17T07:23:59;100284.56;;;13.70;62.16
61136;BME280;47021;51.340;12.432;2023-02-17T07:26:25;100288.31;;;13.67;61.89
61136;BME280;47021;51.340;12.432;2023-02-17T07:28:51;100286.44;;;13.87;61.16
61136;BME280;47021;51.340;12.432;2023-02-17T07:31:16;100290.47;;;13.81;61.20
61136;BME280;47021;51.340;12.432;2023-02-17T07:33:43;100304.31;;;13.74;61.68
61136;BME280;47021;51.340;12.432;2023-02-17T07:36:13;100297.44;;;14.00;61.06
61136;BME280;47021;51.340;12.432;2023-02-17T07:38:39;100301.19;;;13.97;61.02
61136;BME280;47021;51.340;12.432;2023-02-17T07:44:07;100301.47;;;13.94;60.71
61136;BME280;47021;51.340;12.432;2023-02-17T07:46:41;100306.94;;;13.74;61.13
61136;BME280;47021;51.340;12.432;2023-02-17T07:49:08;100315.88;;;13.81;60.98
61136;BME280;47021;51.340;12.432;2023-02-17T07:51:48;100325.28;;;13.83;61.32
61136;BME280;47021;51.340;12.432;2023-02-17T07:54:21;100328.72;;;13.93;60.48
61136;BME280;47021;51.340;12.432;2023-02-17T07:56:47;100328.66;;;14.03;60.21
61136;BME280;47021;51.340;12.432;2023-02-17T07:59:18;100322.19;;;13.97;60.52
61136;BME280;47021;51.340;12.432;2023-02-17T08:01:45;100303.94;;;14.33;59.52
61136;BME280;47021;51.340;12.432;2023-02-17T08:04:16;100314.38;;;14.15;59.94
61136;BME280;47021;51.340;12.432;2023-02-17T08:06:49;100299.03;;;14.10;59.92
61136;BME280;47021;51.340;12.432;2023-02-17T08:09:14;100290.53;;;13.99;60.60
61136;BME280;47021;51.340;12.432;2023-02-17T08:11:41;100285.91;;;14.10;60.32
61136;BME280;47021;51.340;12.432;2023-02-17T08:14:24;100272.31;;;13.97;60.42
61136;BME280;47021;51.340;12.432;2023-02-17T08:16:51;100279.00;;;14.09;60.03
61136;BME280;47021;51.340;12.432;2023-02-17T08:19:26;100265.38;;;14.24;59.64
61136;BME280;47021;51.340;12.432;2023-02-17T08:21:53;100268.16;;;14.22;59.86
61136;BME280;47021;51.340;12.432;2023-02-17T08:24:25;100273.13;;;14.25;59.92
61136;BME280;47021;51.340;12.432;2023-02-17T08:26:51;100262.16;;;14.39;59.67
61136;BME280;47021;51.340;12.432;2023-02-17T08:29:37;100259.16;;;14.34;59.87
61136;BME280;47021;51.340;12.432;2023-02-17T08:32:02;100259.59;;;14.47;59.47
61136;BME280;47021;51.340;12.432;2023-02-17T08:34:35;100258.81;;;14.64;59.77
61136;BME280;47021;51.340;12.432;2023-02-17T08:37:21;100254.56;;;14.71;59.49
61136;BME280;47021;51.340;12.432;2023-02-17T08:39:46;100267.06;;;14.87;58.93
61136;BME280;47021;51.340;12.432;2023-02-17T08:42:13;100261.44;;;14.64;59.70
61136;BME280;47021;51.340;12.432;2023-02-17T08:44:38;100249.25;;;14.81;59.28
61136;BME280;47021;51.340;12.432;2023-02-17T08:47:04;100249.00;;;15.10;58.61
61136;BME280;47021;51.340;12.432;2023-02-17T08:49:37;100247.22;;;14.93;58.26
61136;BME280;47021;51.340;12.432;2023-02-17T08:52:02;100246.69;;;14.89;58.72
61136;BME280;47021;51.340;12.432;2023-02-17T08:54:28;100244.44;;;14.94;58.06
61136;BME280;47021;51.340;12.432;2023-02-17T08:56:54;100238.53;;;15.18;57.95
61136;BME280;47021;51.340;12.432;2023-02-17T08:59:20;100225.66;;;14.89;58.25
61136;BME280;47021;51.340;12.432;2023-02-17T09:01:54;100219.94;;;14.76;58.27
61136;BME280;47021;51.340;12.432;2023-02-17T09:04:38;100214.25;;;15.24;57.11
61136;BME280;47021;51.340;12.432;2023-02-17T09:07:21;100220.41;;;14.89;58.33
61136;BME280;47021;51.340;12.432;2023-02-17T09:09:46;100210.69;;;15.33;57.41
61136;BME280;47021;51.340;12.432;2023-02-17T09:12:15;100209.56;;;14.92;58.28
61136;BME280;47021;51.340;12.432;2023-02-17T09:14:41;100217.28;;;14.50;60.01
61136;BME280;47021;51.340;12.432;2023-02-17T09:17:09;100215.91;;;14.64;60.10
61136;BME280;47021;51.340;12.432;2023-02-17T09:19:37;100221.09;;;14.73;59.63
61136;BME280;47021;51.340;12.432;2023-02-17T09:22:04;100214.22;;;14.98;59.49
61136;BME280;47021;51.340;12.432;2023-02-17T09:24:34;100219.78;;;14.95;58.94
61136;BME280;47021;51.340;12.432;2023-02-17T09:27:08;100214.69;;;14.94;59.24
61136;BME280;47021;51.340;12.432;2023-02-17T09:29:36;100224.41;;;15.19;59.02
61136;BME280;47021;51.340;12.432;2023-02-17T09:32:06;100211.00;;;15.30;57.91
61136;BME280;47021;51.340;12.432;2023-02-17T09:34:44;100214.03;;;15.43;57.35
61136;BME280;47021;51.340;12.432;2023-02-17T09:37:19;100211.84;;;14.87;58.89
61136;BME280;47021;51.340;12.432;2023-02-17T09:39:45;100201.78;;;15.51;57.64
61136;BME280;47021;51.340;12.432;2023-02-17T09:42:19;100193.59;;;15.37;58.14
61136;BME280;47021;51.340;12.432;2023-02-17T09:45:09;100173.63;;;15.52;57.61
61136;BME280;47021;51.340;12.432;2023-02-17T09:47:48;100178.41;;;15.57;57.81
61136;BME280;47021;51.340;12.432;2023-02-17T09:50:50;100168.09;;;15.63;57.46
61136;BME280;47021;51.340;12.432;2023-02-17T09:55:52;100159.50;;;15.27;58.57
61136;BME280;47021;51.340;12.432;2023-02-17T09:58:25;100148.50;;;15.32;58.14
61136;BME280;47021;51.340;12.432;2023-02-17T10:01:01;100146.13;;;14.87;59.39
61136;BME280;47021;51.340;12.432;2023-02-17T10:03:38;100157.66;;;15.45;58.39
61136;BME280;47021;51.340;12.432;2023-02-17T10:06:17;100149.63;;;15.47;58.43
61136;BME280;47021;51.340;12.432;2023-02-17T10:20:37;100150.19;;;15.33;58.62
61136;BME280;47021;51.340;12.432;2023-02-17T10:23:18;100139.63;;;14.73;60.15
61136;BME280;47021;51.340;12.432;2023-02-17T10:26:18;100144.75;;;15.09;59.94
61136;BME280;47021;51.340;12.432;2023-02-17T10:31:40;100141.81;;;14.86;60.83
61136;BME280;47021;51.340;12.432;2023-02-17T10:34:34;100134.09;;;15.10;60.67
61136;BME280;47021;51.340;12.432;2023-02-17T10:39:52;100122.31;;;15.22;60.13
61136;BME280;47021;51.340;12.432;2023-02-17T10:42:26;100130.63;;;15.43;59.97
61136;BME280;47021;51.340;12.432;2023-02-17T10:45:17;100110.09;;;15.13;60.42
61136;BME280;47021;51.340;12.432;2023-02-17T10:47:44;100114.94;;;15.60;58.77
61136;BME280;47021;51.340;12.432;2023-02-17T10:50:22;100115.22;;;15.90;57.91
61136;BME280;47021;51.340;12.432;2023-02-17T10:52:49;100116.75;;;15.59;58.77
61136;BME280;47021;51.340;12.432;2023-02-17T10:55:31;100096.53;;;15.60;57.88
61136;BME280;47021;51.340;12.432;2023-02-17T10:58:12;100093.09;;;15.75;57.49
61136;BME280;47021;51.340;12.432;2023-02-17T11:00:46;100096.66;;;15.50;58.29
61136;BME280;47021;51.340;12.432;2023-02-17T11:03:26;100080.03;;;15.49;58.33
61136;BME280;47021;51.340;12.432;2023-02-17T11:06:02;100084.88;;;15.36;59.04
61136;BME280;47021;51.340;12.432;2023-02-17T11:08:40;100072.56;;;15.87;57.45
61136;BME280;47021;51.340;12.432;2023-02-17T11:14:18;100054.75;;;15.65;57.74
61136;BME280;47021;51.340;12.432;2023-02-17T11:16:49;100059.91;;;15.40;58.29
61136;BME280;47021;51.340;12.432;2023-02-17T11:19:28;100053.50;;;15.35;59.27
61136;BME280;47021;51.340;12.432;2023-02-17T11:21:57;100056.22;;;15.59;57.75
61136;BME280;47021;51.340;12.432;2023-02-17T11:24:24;100059.34;;;15.63;57.86
61136;BME280;47021;51.340;12.432;2023-02-17T11:27:26;100060.81;;;15.57;58.36
61136;BME280;47021;51.340;12.432;2023-02-17T11:30:07;100056.38;;;15.58;58.88
61136;BME280;47021;51.340;12.432;2023-02-17T11:32:34;100055.59;;;15.31;58.96
61136;BME280;47021;51.340;12.432;2023-02-17T11:38:19;100040.09;;;15.62;58.58
61136;BME280;47021;51.340;12.432;2023-02-17T11:41:00;100037.31;;;15.80;58.24
61136;BME280;47021;51.340;12.432;2023-02-17T11:43:34;100036.72;;;16.02;57.59
61136;BME280;47021;51.340;12.432;2023-02-17T11:49:12;100021.25;;;15.33;59.90
61136;BME280;47021;51.340;12.432;2023-02-17T11:52:20;100010.53;;;15.92;58.28
61136;BME280;47021;51.340;12.432;2023-02-17T11:55:17;100010.00;;;16.37;57.01
61136;BME280;47021;51.340;12.432;2023-02-17T11:57:59;100007.72;;;16.18;57.50
61136;BME280;47021;51.340;12.432;2023-02-17T12:06:23;99984.53;;;15.97;58.41
61136;BME280;47021;51.340;12.432;2023-02-17T12:23:26;99954.41;;;16.71;57.08
61136;BME280;47021;51.340;12.432;2023-02-17T12:26:24;99951.09;;;15.90;59.22
61136;BME280;47021;51.340;12.432;2023-02-17T12:36:47;99973.47;;;15.94;59.85
61136;BME280;47021;51.340;12.432;2023-02-17T12:39:23;99971.34;;;15.97;60.22
61136;BME280;47021;51.340;12.432;2023-02-17T12:42:01;99952.72;;;16.15;59.54
61136;BME280;47021;51.340;12.432;2023-02-17T12:44:34;99958.00;;;15.99;60.00
61136;BME280;47021;51.340;12.432;2023-02-17T12:47:09;99952.00;;;16.45;59.25
61136;BME280;47021;51.340;12.432;2023-02-17T12:49:47;99957.94;;;16.55;58.17
61136;BME280;47021;51.340;12.432;2023-02-17T12:52:26;99945.50;;;15.85;60.60
61136;BME280;47021;51.340;12.432;2023-02-17T12:57:57;99941.22;;;16.08;59.87
61136;BME280;47021;51.340;12.432;2023-02-17T13:00:33;99932.78;;;16.29;59.12
61136;BME280;47021;51.340;12.432;2023-02-17T13:02:59;99925.88;;;16.11;59.37
61136;BME280;47021;51.340;12.432;2023-02-17T13:08:49;99922.63;;;15.93;60.07
61136;BME280;47021;51.340;12.432;2023-02-17T13:11:34;99921.72;;;16.33;59.67
61136;BME280;47021;51.340;12.432;2023-02-17T13:16:49;99910.06;;;16.11;59.71
61136;BME280;47021;51.340;12.432;2023-02-17T13:19:35;99904.69;;;15.97;60.28
61136;BME280;47021;51.340;12.432;2023-02-17T13:22:08;99907.72;;;16.33;59.12
61136;BME280;47021;51.340;12.432;2023-02-17T13:24:53;99905.66;;;15.96;60.02
61136;BME280;47021;51.340;12.432;2023-02-17T13:32:31;99883.69;;;16.36;59.23
61136;BME280;47021;51.340;12.432;2023-02-17T13:35:05;99885.44;;;15.80;60.46
61136;BME280;47021;51.340;12.432;2023-02-17T13:39:58;99869.59;;;16.04;59.97
61136;BME280;47021;51.340;12.432;2023-02-17T13:42:42;99846.19;;;16.09;59.53
61136;BME280;47021;51.340;12.432;2023-02-17T13:45:23;99867.22;;;16.34;59.05
61136;BME280;47021;51.340;12.432;2023-02-17T13:47:54;99838.13;;;16.58;58.29
61136;BME280;47021;51.340;12.432;2023-02-17T13:50:32;99847.13;;;16.33;58.98
61136;BME280;47021;51.340;12.432;2023-02-17T13:52:59;99849.13;;;16.69;57.94
61136;BME280;47021;51.340;12.432;2023-02-17T13:55:31;99844.25;;;16.58;58.50
61136;BME280;47021;51.340;12.432;2023-02-17T13:57:58;99859.97;;;16.74;57.65
61136;BME280;47021;51.340;12.432;2023-02-17T14:00:30;99863.19;;;16.46;58.41
61136;BME280;47021;51.340;12.432;2023-02-17T14:03:16;99898.69;;;16.27;59.25
61136;BME280;47021;51.340;12.432;2023-02-17T14:06:01;99879.19;;;16.91;57.25
61136;BME280;47021;51.340;12.432;2023-02-17T14:08:37;99870.91;;;16.94;57.17
61136;BME280;47021;51.340;12.432;2023-02-17T14:11:24;99875.28;;;17.32;56.15
61136;BME280;47021;51.340;12.432;2023-02-17T14:13:55;99886.72;;;16.63;58.01
61136;BME280;47021;51.340;12.432;2023-02-17T14:21:58;99816.25;;;16.80;57.45
61136;BME280;47021;51.340;12.432;2023-02-17T14:24:37;99833.63;;;17.20;56.64
61136;BME280;47021;51.340;12.432;2023-02-17T14:27:05;99821.06;;;17.22;56.61
61136;BME280;47021;51.340;12.432;2023-02-17T14:29:45;99809.28;;;16.87;57.66
61136;BME280;47021;51.340;12.432;2023-02-17T14:32:34;99808.00;;;17.06;57.40
61136;BME280;47021;51.340;12.432;2023-02-17T14:37:45;99779.09;;;17.12;56.90
61136;BME280;47021;51.340;12.432;2023-02-17T14:40:19;99787.47;;;17.16;56.74
61136;BME280;47021;51.340;12.432;2023-02-17T14:42:53;99805.22;;;17.22;56.54
61136;BME280;47021;51.340;12.432;2023-02-17T14:45:35;99844.97;;;17.43;55.65
61136;BME280;47021;51.340;12.432;2023-02-17T14:48:00;99845.59;;;17.30;56.38
61136;BME280;47021;51.340;12.432;2023-02-17T14:50:41;99860.84;;;17.20;56.69
61136;BME280;47021;51.340;12.432;2023-02-17T14:58:42;99885.69;;;17.26;56.48
61136;BME280;47021;51.340;12.432;2023-02-17T15:01:17;99893.06;;;17.08;57.06
61136;BME280;47021;51.340;12.432;2023-02-17T15:03:43;99869.75;;;17.19;56.94
61136;BME280;47021;51.340;12.432;2023-02-17T15:06:19;99868.88;;;17.27;56.82
61136;BME280;47021;51.340;12.432;2023-02-17T15:08:53;99868.69;;;17.28;56.75
61136;BME280;47021;51.340;12.432;2023-02-17T15:11:54;99900.00;;;17.09;57.16
61136;BME280;47021;51.340;12.432;2023-02-17T15:14:20;99890.06;;;17.19;56.98
61136;BME280;47021;51.340;12.432;2023-02-17T15:16:58;99890.56;;;17.14;57.07
61136;BME280;47021;51.340;12.432;2023-02-17T15:19:24;99884.44;;;16.91;57.61
61136;BME280;47021;51.340;12.432;2023-02-17T15:22:04;99877.13;;;17.46;56.64